sensor_id;sensor_type;location;lat;lon;timestamp;temperature;humidity
4435;DHT22;46552;52.150;8.428;2022-08-03T00:01:15;20.70;99.90
4435;DHT22;46552;52.150;8.428;2022-08-03T00:03:44;20.80;99.90
4435;DHT22;46552;52.150;8.428;2022-08-03T00:06:12;20.80;99.90
4435;DHT22;46552;52.150;8.428;2022-08-03T00:08:39;20.80;99.90
4435;DHT22;46552;52.150;8.428;2022-08-03T00:11:06;20.70;99.90
4435;DHT22;46552;52.150;8.428;2022-08-03T00:13:34;20.70;99.90
4435;DHT22;46552;52.150;8.428;2022-08-03T00:16:01;20.70;99.90
4435;DHT22;46552;52.150;8.428;2022-08-03T00:18:29;20.70;99.90
4435;DHT22;46552;52.150;8.428;2022-08-03T00:20:57;20.60;99.90
4435;DHT22;46552;52.150;8.428;2022-08-03T00:23:25;20.60;99.90
4435;DHT22;46552;52.150;8.428;2022-08-03T00:25:52;20.50;99.90
4435;DHT22;46552;52.150;8.428;2022-08-03T00:28:19;20.50;99.90
4435;DHT22;46552;52.150;8.428;2022-08-03T00:30:46;20.50;99.90
4435;DHT22;46552;52.150;8.428;2022-08-03T00:33:14;20.40;99.90
4435;DHT22;46552;52.150;8.428;2022-08-03T00:35:42;20.40;99.90
4435;DHT22;46552;52.150;8.428;2022-08-03T00:38:12;20.40;99.90
4435;DHT22;46552;52.150;8.428;2022-08-03T00:40:39;20.30;99.90
4435;DHT22;46552;52.150;8.428;2022-08-03T00:43:08;20.30;99.90
4435;DHT22;46552;52.150;8.428;2022-08-03T00:45:37;20.20;99.90
4435;DHT22;46552;52.150;8.428;2022-08-03T00:48:06;20.20;99.90
4435;DHT22;46552;52.150;8.428;2022-08-03T00:50:38;20.10;99.90
4435;DHT22;46552;52.150;8.428;2022-08-03T00:53:06;20.10;99.90
4435;DHT22;46552;52.150;8.428;2022-08-03T00:55:36;20.00;99.90
4435;DHT22;46552;52.150;8.428;2022-08-03T00:58:04;20.00;99.90
4435;DHT22;46552;52.150;8.428;2022-08-03T01:00:34;20.00;99.90
4435;DHT22;46552;52.150;8.428;2022-08-03T01:03:03;20.00;99.90
4435;DHT22;46552;52.150;8.428;2022-08-03T01:05:36;20.00;99.90
4435;DHT22;46552;52.150;8.428;2022-08-03T01:08:10;20.00;99.90
4435;DHT22;46552;52.150;8.428;2022-08-03T01:10:45;20.00;99.90
4435;DHT22;46552;52.150;8.428;2022-08-03T01:13:22;20.00;99.90
4435;DHT22;46552;52.150;8.428;2022-08-03T01:15:58;19.90;99.90
4435;DHT22;46552;52.150;8.428;2022-08-03T01:18:31;19.90;99.90
4435;DHT22;46552;52.150;8.428;2022-08-03T01:21:08;19.90;99.90
4435;DHT22;46552;52.150;8.428;2022-08-03T01:23:51;19.90;99.90
4435;DHT22;46552;52.150;8.428;2022-08-03T01:26:47;19.90;99.90
4435;DHT22;46552;52.150;8.428;2022-08-03T01:29:39;19.90;99.90
4435;DHT22;46552;52.150;8.428;2022-08-03T01:32:15;19.80;99.90
4435;DHT22;46552;52.150;8.428;2022-08-03T01:34:50;19.80;99.90
4435;DHT22;46552;52.150;8.428;2022-08-03T01:37:23;19.70;99.90
4435;DHT22;46552;52.150;8.428;2022-08-03T01:39:55;19.70;99.90
4435;DHT22;46552;52.150;8.428;2022-08-03T01:42:24;19.70;99.90
4435;DHT22;46552;52.150;8.428;2022-08-03T01:44:54;19.70;99.90
4435;DHT22;46552;52.150;8.428;2022-08-03T01:47:23;19.60;99.90
4435;DHT22;46552;52.150;8.428;2022-08-03T01:49:51;19.60;99.90
4435;DHT22;46552;52.150;8.428;2022-08-03T01:52:20;19.60;99.90
4435;DHT22;46552;52.150;8.428;2022-08-03T01:54:49;19.50;99.90
4435;DHT22;46552;52.150;8.428;2022-08-03T01:57:18;19.50;99.90
4435;DHT22;46552;52.150;8.428;2022-08-03T01:59:48;19.50;99.90
4435;DHT22;46552;52.150;8.428;2022-08-03T02:02:17;19.50;99.90
4435;DHT22;46552;52.150;8.428;2022-08-03T02:04:46;19.50;99.90
4435;DHT22;46552;52.150;8.428;2022-08-03T02:07:15;19.40;99.90
4435;DHT22;46552;52.150;8.428;2022-08-03T02:09:44;19.40;99.90
4435;DHT22;46552;52.150;8.428;2022-08-03T02:12:13;19.40;99.90
4435;DHT22;46552;52.150;8.428;2022-08-03T02:14:43;19.40;99.90
4435;DHT22;46552;52.150;8.428;2022-08-03T02:17:11;19.40;99.90
4435;DHT22;46552;52.150;8.428;2022-08-03T02:19:44;19.30;99.90
4435;DHT22;46552;52.150;8.428;2022-08-03T02:22:14;19.30;99.90
4435;DHT22;46552;52.150;8.428;2022-08-03T02:24:41;19.30;99.90
4435;DHT22;46552;52.150;8.428;2022-08-03T02:27:14;19.20;99.90
4435;DHT22;46552;52.150;8.428;2022-08-03T02:29:45;19.20;99.90
4435;DHT22;46552;52.150;8.428;2022-08-03T02:32:19;19.20;99.90
4435;DHT22;46552;52.150;8.428;2022-08-03T02:34:51;19.10;99.90
4435;DHT22;46552;52.150;8.428;2022-08-03T02:37:22;19.10;99.90
4435;DHT22;46552;52.150;8.428;2022-08-03T02:39:54;19.10;99.90
4435;DHT22;46552;52.150;8.428;2022-08-03T02:42:24;19.00;99.90
4435;DHT22;46552;52.150;8.428;2022-08-03T02:44:54;19.00;99.90
4435;DHT22;46552;52.150;8.428;2022-08-03T02:47:25;19.00;99.90
4435;DHT22;46552;52.150;8.428;2022-08-03T02:49:56;19.00;99.90
4435;DHT22;46552;52.150;8.428;2022-08-03T02:52:27;19.00;99.90
4435;DHT22;46552;52.150;8.428;2022-08-03T02:54:58;19.00;99.90
4435;DHT22;46552;52.150;8.428;2022-08-03T02:57:27;18.90;99.90
4435;DHT22;46552;52.150;8.428;2022-08-03T02:59:56;18.90;99.90
4435;DHT22;46552;52.150;8.428;2022-08-03T03:02:24;18.90;99.90
4435;DHT22;46552;52.150;8.428;2022-08-03T03:04:52;18.90;99.90
4435;DHT22;46552;52.150;8.428;2022-08-03T03:07:22;18.90;99.90
4435;DHT22;46552;52.150;8.428;2022-08-03T03:09:50;18.80;99.90
4435;DHT22;46552;52.150;8.428;2022-08-03T03:12:18;18.80;99.90
4435;DHT22;46552;52.150;8.428;2022-08-03T03:14:46;18.80;99.90
4435;DHT22;46552;52.150;8.428;2022-08-03T03:17:14;18.70;99.90
4435;DHT22;46552;52.150;8.428;2022-08-03T03:19:43;18.70;99.90
4435;DHT22;46552;52.150;8.428;2022-08-03T03:22:12;18.70;99.90
4435;DHT22;46552;52.150;8.428;2022-08-03T03:24:42;18.70;99.90
4435;DHT22;46552;52.150;8.428;2022-08-03T03:27:10;18.60;99.90
4435;DHT22;46552;52.150;8.428;2022-08-03T03:29:39;18.60;99.90
4435;DHT22;46552;52.150;8.428;2022-08-03T03:32:07;18.70;99.90
4435;DHT22;46552;52.150;8.428;2022-08-03T03:34:34;18.60;99.90
4435;DHT22;46552;52.150;8.428;2022-08-03T03:37:02;18.60;99.90
4435;DHT22;46552;52.150;8.428;2022-08-03T03:39:29;18.60;99.90
4435;DHT22;46552;52.150;8.428;2022-08-03T03:41:59;18.60;99.90
4435;DHT22;46552;52.150;8.428;2022-08-03T03:44:27;18.50;99.90
4435;DHT22;46552;52.150;8.428;2022-08-03T03:46:55;18.50;99.90
4435;DHT22;46552;52.150;8.428;2022-08-03T03:49:23;18.50;99.90
4435;DHT22;46552;52.150;8.428;2022-08-03T03:51:52;18.50;99.90
4435;DHT22;46552;52.150;8.428;2022-08-03T03:54:20;18.50;99.90
4435;DHT22;46552;52.150;8.428;2022-08-03T03:56:48;18.50;99.90
4435;DHT22;46552;52.150;8.428;2022-08-03T03:59:16;18.40;99.90
4435;DHT22;46552;52.150;8.428;2022-08-03T04:01:43;18.50;99.90
4435;DHT22;46552;52.150;8.428;2022-08-03T04:04:10;18.50;99.90
4435;DHT22;46552;52.150;8.428;2022-08-03T04:06:55;18.50;99.90
4435;DHT22;46552;52.150;8.428;2022-08-03T04:09:40;18.50;99.90
4435;DHT22;46552;52.150;8.428;2022-08-03T04:12:32;18.60;99.90
4435;DHT22;46552;52.150;8.428;2022-08-03T04:15:02;18.60;99.90
4435;DHT22;46552;52.150;8.428;2022-08-03T04:17:31;18.60;99.90
4435;DHT22;46552;52.150;8.428;2022-08-03T04:20:00;18.60;99.90
4435;DHT22;46552;52.150;8.428;2022-08-03T04:22:30;18.70;99.90
4435;DHT22;46552;52.150;8.428;2022-08-03T04:25:01;18.70;99.90
4435;DHT22;46552;52.150;8.428;2022-08-03T04:27:36;18.70;99.90
4435;DHT22;46552;52.150;8.428;2022-08-03T04:30:06;18.70;99.90
4435;DHT22;46552;52.150;8.428;2022-08-03T04:32:36;18.80;99.90
4435;DHT22;46552;52.150;8.428;2022-08-03T04:35:06;18.80;99.90
4435;DHT22;46552;52.150;8.428;2022-08-03T04:37:38;18.80;99.90
4435;DHT22;46552;52.150;8.428;2022-08-03T04:40:09;18.80;99.90
4435;DHT22;46552;52.150;8.428;2022-08-03T04:42:37;18.80;99.90
4435;DHT22;46552;52.150;8.428;2022-08-03T04:45:11;18.80;99.90
4435;DHT22;46552;52.150;8.428;2022-08-03T04:47:39;18.80;99.90
4435;DHT22;46552;52.150;8.428;2022-08-03T04:50:07;18.80;99.90
4435;DHT22;46552;52.150;8.428;2022-08-03T04:52:35;18.80;99.90
4435;DHT22;46552;52.150;8.428;2022-08-03T04:55:03;18.80;99.90
4435;DHT22;46552;52.150;8.428;2022-08-03T04:57:32;18.80;99.90
4435;DHT22;46552;52.150;8.428;2022-08-03T04:59:59;18.90;99.90
4435;DHT22;46552;52.150;8.428;2022-08-03T05:02:29;18.90;99.90
4435;DHT22;46552;52.150;8.428;2022-08-03T05:04:57;19.00;99.90
4435;DHT22;46552;52.150;8.428;2022-08-03T05:07:25;19.10;99.90
4435;DHT22;46552;52.150;8.428;2022-08-03T05:09:52;19.10;99.90
4435;DHT22;46552;52.150;8.428;2022-08-03T05:12:20;19.10;99.90
4435;DHT22;46552;52.150;8.428;2022-08-03T05:14:49;19.20;99.90
4435;DHT22;46552;52.150;8.428;2022-08-03T05:17:16;19.30;99.90
4435;DHT22;46552;52.150;8.428;2022-08-03T05:19:45;19.40;99.90
4435;DHT22;46552;52.150;8.428;2022-08-03T05:22:14;19.40;99.90
4435;DHT22;46552;52.150;8.428;2022-08-03T05:24:41;19.50;99.90
4435;DHT22;46552;52.150;8.428;2022-08-03T05:27:09;19.50;99.90
4435;DHT22;46552;52.150;8.428;2022-08-03T05:29:42;19.60;99.90
4435;DHT22;46552;52.150;8.428;2022-08-03T05:32:08;19.70;99.90
4435;DHT22;46552;52.150;8.428;2022-08-03T05:34:36;19.70;99.90
4435;DHT22;46552;52.150;8.428;2022-08-03T05:37:05;19.80;99.90
4435;DHT22;46552;52.150;8.428;2022-08-03T05:39:33;19.90;99.90
4435;DHT22;46552;52.150;8.428;2022-08-03T05:42:00;20.00;99.90
4435;DHT22;46552;52.150;8.428;2022-08-03T05:44:27;20.00;99.90
4435;DHT22;46552;52.150;8.428;2022-08-03T05:46:56;20.10;99.90
4435;DHT22;46552;52.150;8.428;2022-08-03T05:49:23;20.20;99.90
4435;DHT22;46552;52.150;8.428;2022-08-03T05:51:51;20.20;99.90
4435;DHT22;46552;52.150;8.428;2022-08-03T05:54:20;20.30;99.90
4435;DHT22;46552;52.150;8.428;2022-08-03T05:56:48;20.40;99.90
4435;DHT22;46552;52.150;8.428;2022-08-03T05:59:15;20.50;99.90
4435;DHT22;46552;52.150;8.428;2022-08-03T06:01:42;20.60;99.90
4435;DHT22;46552;52.150;8.428;2022-08-03T06:04:09;20.60;99.90
4435;DHT22;46552;52.150;8.428;2022-08-03T06:06:36;20.70;99.90
4435;DHT22;46552;52.150;8.428;2022-08-03T06:09:03;20.80;99.90
4435;DHT22;46552;52.150;8.428;2022-08-03T06:11:33;20.90;99.90
4435;DHT22;46552;52.150;8.428;2022-08-03T06:14:01;21.00;99.90
4435;DHT22;46552;52.150;8.428;2022-08-03T06:16:28;21.10;99.90
4435;DHT22;46552;52.150;8.428;2022-08-03T06:18:55;21.20;99.90
4435;DHT22;46552;52.150;8.428;2022-08-03T06:21:23;21.20;99.90
4435;DHT22;46552;52.150;8.428;2022-08-03T06:23:51;21.30;99.90
4435;DHT22;46552;52.150;8.428;2022-08-03T06:26:18;21.40;99.90
4435;DHT22;46552;52.150;8.428;2022-08-03T06:28:46;21.50;99.90
4435;DHT22;46552;52.150;8.428;2022-08-03T06:31:14;21.60;99.90
4435;DHT22;46552;52.150;8.428;2022-08-03T06:33:41;21.70;99.90
4435;DHT22;46552;52.150;8.428;2022-08-03T06:36:08;21.80;99.90
4435;DHT22;46552;52.150;8.428;2022-08-03T06:38:36;21.90;99.90
4435;DHT22;46552;52.150;8.428;2022-08-03T06:41:03;22.00;99.90
4435;DHT22;46552;52.150;8.428;2022-08-03T06:43:30;22.20;99.90
4435;DHT22;46552;52.150;8.428;2022-08-03T06:46:01;22.30;99.90
4435;DHT22;46552;52.150;8.428;2022-08-03T06:48:30;22.40;99.90
4435;DHT22;46552;52.150;8.428;2022-08-03T06:50:57;22.50;99.90
4435;DHT22;46552;52.150;8.428;2022-08-03T06:53:25;22.60;99.90
4435;DHT22;46552;52.150;8.428;2022-08-03T06:55:52;22.80;99.90
4435;DHT22;46552;52.150;8.428;2022-08-03T06:58:20;22.90;99.90
4435;DHT22;46552;52.150;8.428;2022-08-03T07:00:48;23.00;99.90
4435;DHT22;46552;52.150;8.428;2022-08-03T07:03:18;23.10;99.90
4435;DHT22;46552;52.150;8.428;2022-08-03T07:05:45;23.30;99.90
4435;DHT22;46552;52.150;8.428;2022-08-03T07:08:13;23.30;99.90
4435;DHT22;46552;52.150;8.428;2022-08-03T07:10:41;23.40;99.90
4435;DHT22;46552;52.150;8.428;2022-08-03T07:13:08;23.50;99.90
4435;DHT22;46552;52.150;8.428;2022-08-03T07:15:35;23.60;99.90
4435;DHT22;46552;52.150;8.428;2022-08-03T07:18:02;23.60;99.90
4435;DHT22;46552;52.150;8.428;2022-08-03T07:20:32;23.70;99.90
4435;DHT22;46552;52.150;8.428;2022-08-03T07:23:00;23.70;99.90
4435;DHT22;46552;52.150;8.428;2022-08-03T07:25:27;23.80;99.90
4435;DHT22;46552;52.150;8.428;2022-08-03T07:27:54;23.80;99.90
4435;DHT22;46552;52.150;8.428;2022-08-03T07:30:21;23.90;99.90
4435;DHT22;46552;52.150;8.428;2022-08-03T07:32:48;24.00;99.90
4435;DHT22;46552;52.150;8.428;2022-08-03T07:35:16;24.10;99.90
4435;DHT22;46552;52.150;8.428;2022-08-03T07:37:46;24.20;99.90
4435;DHT22;46552;52.150;8.428;2022-08-03T07:40:13;24.30;99.90
4435;DHT22;46552;52.150;8.428;2022-08-03T07:42:42;24.40;99.90
4435;DHT22;46552;52.150;8.428;2022-08-03T07:45:09;24.50;99.90
4435;DHT22;46552;52.150;8.428;2022-08-03T07:47:36;24.60;99.90
4435;DHT22;46552;52.150;8.428;2022-08-03T07:50:06;24.70;99.90
4435;DHT22;46552;52.150;8.428;2022-08-03T07:52:33;24.80;99.90
4435;DHT22;46552;52.150;8.428;2022-08-03T07:55:19;24.90;99.90
4435;DHT22;46552;52.150;8.428;2022-08-03T07:57:47;25.10;99.90
4435;DHT22;46552;52.150;8.428;2022-08-03T08:00:24;25.20;99.90
4435;DHT22;46552;52.150;8.428;2022-08-03T08:02:51;25.40;99.90
4435;DHT22;46552;52.150;8.428;2022-08-03T08:05:19;25.50;99.90
4435;DHT22;46552;52.150;8.428;2022-08-03T08:07:46;25.60;99.90
4435;DHT22;46552;52.150;8.428;2022-08-03T08:10:14;25.80;99.90
4435;DHT22;46552;52.150;8.428;2022-08-03T08:12:43;25.90;99.90
4435;DHT22;46552;52.150;8.428;2022-08-03T08:15:11;26.00;99.90
4435;DHT22;46552;52.150;8.428;2022-08-03T08:17:43;26.20;99.90
4435;DHT22;46552;52.150;8.428;2022-08-03T08:20:14;26.30;99.90
4435;DHT22;46552;52.150;8.428;2022-08-03T08:22:42;26.40;99.50
4435;DHT22;46552;52.150;8.428;2022-08-03T08:25:10;26.50;99.40
4435;DHT22;46552;52.150;8.428;2022-08-03T08:27:43;26.60;99.30
4435;DHT22;46552;52.150;8.428;2022-08-03T08:30:13;26.80;99.00
4435;DHT22;46552;52.150;8.428;2022-08-03T08:32:41;26.90;98.80
4435;DHT22;46552;52.150;8.428;2022-08-03T08:35:09;27.10;98.70
4435;DHT22;46552;52.150;8.428;2022-08-03T08:37:37;27.30;98.30
4435;DHT22;46552;52.150;8.428;2022-08-03T08:40:06;27.40;98.30
4435;DHT22;46552;52.150;8.428;2022-08-03T08:42:36;27.50;98.10
4435;DHT22;46552;52.150;8.428;2022-08-03T08:45:06;27.60;97.60
4435;DHT22;46552;52.150;8.428;2022-08-03T08:47:37;27.70;97.70
4435;DHT22;46552;52.150;8.428;2022-08-03T08:50:05;27.80;97.50
4435;DHT22;46552;52.150;8.428;2022-08-03T08:52:33;27.90;97.30
4435;DHT22;46552;52.150;8.428;2022-08-03T08:55:04;27.90;97.10
4435;DHT22;46552;52.150;8.428;2022-08-03T08:57:34;28.00;97.10
4435;DHT22;46552;52.150;8.428;2022-08-03T09:00:06;28.20;97.00
4435;DHT22;46552;52.150;8.428;2022-08-03T09:02:35;28.40;96.90
4435;DHT22;46552;52.150;8.428;2022-08-03T09:05:03;28.50;96.60
4435;DHT22;46552;52.150;8.428;2022-08-03T09:07:30;28.70;96.50
4435;DHT22;46552;52.150;8.428;2022-08-03T09:09:57;28.80;96.20
4435;DHT22;46552;52.150;8.428;2022-08-03T09:12:25;28.90;95.90
4435;DHT22;46552;52.150;8.428;2022-08-03T09:14:54;28.90;95.70
4435;DHT22;46552;52.150;8.428;2022-08-03T09:17:24;29.10;95.20
4435;DHT22;46552;52.150;8.428;2022-08-03T09:20:06;29.10;95.30
4435;DHT22;46552;52.150;8.428;2022-08-03T09:22:34;29.20;95.20
4435;DHT22;46552;52.150;8.428;2022-08-03T09:25:04;29.40;94.90
4435;DHT22;46552;52.150;8.428;2022-08-03T09:27:41;29.40;94.60
4435;DHT22;46552;52.150;8.428;2022-08-03T09:30:13;29.60;94.30
4435;DHT22;46552;52.150;8.428;2022-08-03T09:32:42;29.50;94.30
4435;DHT22;46552;52.150;8.428;2022-08-03T09:35:11;29.60;94.20
4435;DHT22;46552;52.150;8.428;2022-08-03T09:37:40;29.60;94.20
4435;DHT22;46552;52.150;8.428;2022-08-03T09:40:08;29.60;94.00
4435;DHT22;46552;52.150;8.428;2022-08-03T09:42:36;29.50;93.90
4435;DHT22;46552;52.150;8.428;2022-08-03T09:45:04;29.50;93.90
4435;DHT22;46552;52.150;8.428;2022-08-03T09:47:33;29.60;93.80
4435;DHT22;46552;52.150;8.428;2022-08-03T09:50:05;29.60;93.20
4435;DHT22;46552;52.150;8.428;2022-08-03T09:52:33;29.60;93.30
4435;DHT22;46552;52.150;8.428;2022-08-03T09:55:01;29.60;93.40
4435;DHT22;46552;52.150;8.428;2022-08-03T09:57:29;29.60;93.10
4435;DHT22;46552;52.150;8.428;2022-08-03T10:00:06;29.90;92.90
4435;DHT22;46552;52.150;8.428;2022-08-03T10:02:38;30.10;92.60
4435;DHT22;46552;52.150;8.428;2022-08-03T10:05:10;30.20;92.40
4435;DHT22;46552;52.150;8.428;2022-08-03T10:07:45;30.30;91.80
4435;DHT22;46552;52.150;8.428;2022-08-03T10:10:12;30.30;91.90
4435;DHT22;46552;52.150;8.428;2022-08-03T10:12:41;30.40;91.70
4435;DHT22;46552;52.150;8.428;2022-08-03T10:15:09;30.50;91.30
4435;DHT22;46552;52.150;8.428;2022-08-03T10:17:37;30.60;91.10
4435;DHT22;46552;52.150;8.428;2022-08-03T10:20:09;30.60;91.10
4435;DHT22;46552;52.150;8.428;2022-08-03T10:22:38;30.80;90.40
4435;DHT22;46552;52.150;8.428;2022-08-03T10:25:07;30.90;90.00
4435;DHT22;46552;52.150;8.428;2022-08-03T10:27:37;31.00;89.80
4435;DHT22;46552;52.150;8.428;2022-08-03T10:30:06;31.10;89.50
4435;DHT22;46552;52.150;8.428;2022-08-03T10:32:37;31.00;89.30
4435;DHT22;46552;52.150;8.428;2022-08-03T10:35:09;30.90;88.70
4435;DHT22;46552;52.150;8.428;2022-08-03T10:37:41;30.80;88.80
4435;DHT22;46552;52.150;8.428;2022-08-03T10:40:12;30.70;88.40
4435;DHT22;46552;52.150;8.428;2022-08-03T10:42:42;30.70;88.50
4435;DHT22;46552;52.150;8.428;2022-08-03T10:45:17;30.80;88.30
4435;DHT22;46552;52.150;8.428;2022-08-03T10:47:46;30.80;86.40
4435;DHT22;46552;52.150;8.428;2022-08-03T10:50:17;30.90;86.00
4435;DHT22;46552;52.150;8.428;2022-08-03T10:52:55;30.90;85.70
4435;DHT22;46552;52.150;8.428;2022-08-03T10:55:33;30.90;84.80
4435;DHT22;46552;52.150;8.428;2022-08-03T10:58:47;30.90;85.40
4435;DHT22;46552;52.150;8.428;2022-08-03T11:01:17;30.80;85.00
4435;DHT22;46552;52.150;8.428;2022-08-03T11:04:16;30.80;84.80
4435;DHT22;46552;52.150;8.428;2022-08-03T11:06:46;30.80;83.50
4435;DHT22;46552;52.150;8.428;2022-08-03T11:09:16;30.70;84.10
4435;DHT22;46552;52.150;8.428;2022-08-03T11:11:45;30.90;84.00
4435;DHT22;46552;52.150;8.428;2022-08-03T11:14:15;31.10;83.40
4435;DHT22;46552;52.150;8.428;2022-08-03T11:16:45;31.40;83.10
4435;DHT22;46552;52.150;8.428;2022-08-03T11:19:15;31.80;81.90
4435;DHT22;46552;52.150;8.428;2022-08-03T11:21:58;32.10;80.10
4435;DHT22;46552;52.150;8.428;2022-08-03T11:24:59;32.40;78.70
4435;DHT22;46552;52.150;8.428;2022-08-03T11:27:31;32.60;78.20
4435;DHT22;46552;52.150;8.428;2022-08-03T11:30:05;32.90;77.70
4435;DHT22;46552;52.150;8.428;2022-08-03T11:35:33;33.10;75.60
4435;DHT22;46552;52.150;8.428;2022-08-03T11:38:07;33.20;75.60
4435;DHT22;46552;52.150;8.428;2022-08-03T11:40:40;33.40;73.20
4435;DHT22;46552;52.150;8.428;2022-08-03T11:43:10;33.40;73.80
4435;DHT22;46552;52.150;8.428;2022-08-03T11:46:01;33.50;73.50
4435;DHT22;46552;52.150;8.428;2022-08-03T11:48:34;33.60;72.90
4435;DHT22;46552;52.150;8.428;2022-08-03T11:51:02;33.70;72.50
4435;DHT22;46552;52.150;8.428;2022-08-03T11:53:32;34.00;72.90
4435;DHT22;46552;52.150;8.428;2022-08-03T11:56:00;34.10;72.10
4435;DHT22;46552;52.150;8.428;2022-08-03T11:58:29;34.20;72.20
4435;DHT22;46552;52.150;8.428;2022-08-03T12:01:03;34.20;71.70
4435;DHT22;46552;52.150;8.428;2022-08-03T12:03:32;34.30;72.00
4435;DHT22;46552;52.150;8.428;2022-08-03T12:06:00;34.30;71.80
4435;DHT22;46552;52.150;8.428;2022-08-03T12:08:32;34.30;71.10
4435;DHT22;46552;52.150;8.428;2022-08-03T12:11:02;34.30;70.00
4435;DHT22;46552;52.150;8.428;2022-08-03T12:13:38;34.30;69.50
4435;DHT22;46552;52.150;8.428;2022-08-03T12:16:06;34.40;69.10
4435;DHT22;46552;52.150;8.428;2022-08-03T12:18:34;34.50;69.50
4435;DHT22;46552;52.150;8.428;2022-08-03T12:21:07;34.80;69.20
4435;DHT22;46552;52.150;8.428;2022-08-03T12:23:37;34.80;68.50
4435;DHT22;46552;52.150;8.428;2022-08-03T12:26:06;35.00;69.00
4435;DHT22;46552;52.150;8.428;2022-08-03T12:28:34;34.90;68.10
4435;DHT22;46552;52.150;8.428;2022-08-03T12:31:04;34.90;67.50
4435;DHT22;46552;52.150;8.428;2022-08-03T12:33:56;34.90;67.40
4435;DHT22;46552;52.150;8.428;2022-08-03T12:36:23;35.10;67.40
4435;DHT22;46552;52.150;8.428;2022-08-03T12:38:56;35.10;67.20
4435;DHT22;46552;52.150;8.428;2022-08-03T12:41:31;35.10;66.90
4435;DHT22;46552;52.150;8.428;2022-08-03T12:44:00;35.10;66.30
4435;DHT22;46552;52.150;8.428;2022-08-03T12:46:32;35.10;66.30
4435;DHT22;46552;52.150;8.428;2022-08-03T12:49:04;35.20;66.40
4435;DHT22;46552;52.150;8.428;2022-08-03T12:51:34;35.20;66.00
4435;DHT22;46552;52.150;8.428;2022-08-03T12:54:04;35.30;65.30
4435;DHT22;46552;52.150;8.428;2022-08-03T12:56:31;35.30;64.20
4435;DHT22;46552;52.150;8.428;2022-08-03T12:58:59;35.30;64.10
4435;DHT22;46552;52.150;8.428;2022-08-03T13:01:26;35.10;64.00
4435;DHT22;46552;52.150;8.428;2022-08-03T13:04:02;35.20;64.10
4435;DHT22;46552;52.150;8.428;2022-08-03T13:06:30;35.30;64.00
4435;DHT22;46552;52.150;8.428;2022-08-03T13:09:05;35.30;64.20
4435;DHT22;46552;52.150;8.428;2022-08-03T13:11:33;35.30;63.40
4435;DHT22;46552;52.150;8.428;2022-08-03T13:14:01;35.20;63.80
4435;DHT22;46552;52.150;8.428;2022-08-03T13:16:28;35.20;63.50
4435;DHT22;46552;52.150;8.428;2022-08-03T13:18:56;35.10;63.30
4435;DHT22;46552;52.150;8.428;2022-08-03T13:21:23;35.10;63.40
4435;DHT22;46552;52.150;8.428;2022-08-03T13:23:51;35.20;63.00
4435;DHT22;46552;52.150;8.428;2022-08-03T13:26:19;35.30;62.80
4435;DHT22;46552;52.150;8.428;2022-08-03T13:28:46;35.40;62.50
4435;DHT22;46552;52.150;8.428;2022-08-03T13:31:13;35.30;61.60
4435;DHT22;46552;52.150;8.428;2022-08-03T13:33:41;35.30;61.60
4435;DHT22;46552;52.150;8.428;2022-08-03T13:36:08;35.20;61.50
4435;DHT22;46552;52.150;8.428;2022-08-03T13:38:36;35.20;61.60
4435;DHT22;46552;52.150;8.428;2022-08-03T13:41:03;35.10;61.60
4435;DHT22;46552;52.150;8.428;2022-08-03T13:43:33;35.10;61.40
4435;DHT22;46552;52.150;8.428;2022-08-03T13:46:00;35.20;60.60
4435;DHT22;46552;52.150;8.428;2022-08-03T13:48:27;35.10;60.80
4435;DHT22;46552;52.150;8.428;2022-08-03T13:50:56;35.10;60.70
4435;DHT22;46552;52.150;8.428;2022-08-03T13:53:23;35.10;60.80
4435;DHT22;46552;52.150;8.428;2022-08-03T13:55:50;35.20;61.00
4435;DHT22;46552;52.150;8.428;2022-08-03T13:58:17;35.20;61.10
4435;DHT22;46552;52.150;8.428;2022-08-03T14:00:46;34.90;60.80
4435;DHT22;46552;52.150;8.428;2022-08-03T14:03:14;35.00;60.70
4435;DHT22;46552;52.150;8.428;2022-08-03T14:05:42;34.90;60.60
4435;DHT22;46552;52.150;8.428;2022-08-03T14:08:09;34.80;60.50
4435;DHT22;46552;52.150;8.428;2022-08-03T14:10:38;34.80;60.40
4435;DHT22;46552;52.150;8.428;2022-08-03T14:13:06;34.80;60.20
4435;DHT22;46552;52.150;8.428;2022-08-03T14:15:34;34.90;60.40
4435;DHT22;46552;52.150;8.428;2022-08-03T14:18:05;35.00;60.40
4435;DHT22;46552;52.150;8.428;2022-08-03T14:20:34;35.00;60.20
4435;DHT22;46552;52.150;8.428;2022-08-03T14:23:02;34.90;60.10
4435;DHT22;46552;52.150;8.428;2022-08-03T14:25:29;34.80;60.10
4435;DHT22;46552;52.150;8.428;2022-08-03T14:27:57;34.80;60.00
4435;DHT22;46552;52.150;8.428;2022-08-03T14:30:24;34.80;59.40
4435;DHT22;46552;52.150;8.428;2022-08-03T14:32:51;34.80;59.10
4435;DHT22;46552;52.150;8.428;2022-08-03T14:35:19;34.80;59.20
4435;DHT22;46552;52.150;8.428;2022-08-03T14:37:46;34.90;59.20
4435;DHT22;46552;52.150;8.428;2022-08-03T14:40:14;34.90;59.40
4435;DHT22;46552;52.150;8.428;2022-08-03T14:42:42;34.90;59.20
4435;DHT22;46552;52.150;8.428;2022-08-03T14:45:09;35.00;59.10
4435;DHT22;46552;52.150;8.428;2022-08-03T14:47:37;35.00;59.00
4435;DHT22;46552;52.150;8.428;2022-08-03T14:50:07;34.90;58.70
4435;DHT22;46552;52.150;8.428;2022-08-03T14:52:36;34.90;58.80
4435;DHT22;46552;52.150;8.428;2022-08-03T14:55:03;35.00;58.70
4435;DHT22;46552;52.150;8.428;2022-08-03T14:57:30;35.00;58.60
4435;DHT22;46552;52.150;8.428;2022-08-03T14:59:58;35.00;58.40
4435;DHT22;46552;52.150;8.428;2022-08-03T15:02:25;35.00;58.50
4435;DHT22;46552;52.150;8.428;2022-08-03T15:04:55;34.90;58.40
4435;DHT22;46552;52.150;8.428;2022-08-03T15:07:22;34.80;58.60
4435;DHT22;46552;52.150;8.428;2022-08-03T15:09:51;34.70;58.80
4435;DHT22;46552;52.150;8.428;2022-08-03T15:12:20;34.70;59.00
4435;DHT22;46552;52.150;8.428;2022-08-03T15:14:47;34.60;58.90
4435;DHT22;46552;52.150;8.428;2022-08-03T15:17:15;34.60;59.10
4435;DHT22;46552;52.150;8.428;2022-08-03T15:19:42;34.60;59.40
4435;DHT22;46552;52.150;8.428;2022-08-03T15:22:09;34.70;59.10
4435;DHT22;46552;52.150;8.428;2022-08-03T15:24:36;34.70;59.00
4435;DHT22;46552;52.150;8.428;2022-08-03T15:27:04;34.60;58.90
4435;DHT22;46552;52.150;8.428;2022-08-03T15:29:32;34.50;58.70
4435;DHT22;46552;52.150;8.428;2022-08-03T15:31:59;34.40;58.60
4435;DHT22;46552;52.150;8.428;2022-08-03T15:34:26;34.20;58.40
4435;DHT22;46552;52.150;8.428;2022-08-03T15:36:54;34.20;58.50
4435;DHT22;46552;52.150;8.428;2022-08-03T15:39:21;34.10;58.30
4435;DHT22;46552;52.150;8.428;2022-08-03T15:41:48;34.10;58.30
4435;DHT22;46552;52.150;8.428;2022-08-03T15:44:19;34.10;58.00
4435;DHT22;46552;52.150;8.428;2022-08-03T15:46:46;34.10;57.80
4435;DHT22;46552;52.150;8.428;2022-08-03T15:49:14;34.10;57.60
4435;DHT22;46552;52.150;8.428;2022-08-03T15:51:42;34.00;57.40
4435;DHT22;46552;52.150;8.428;2022-08-03T15:54:09;34.10;57.40
4435;DHT22;46552;52.150;8.428;2022-08-03T15:56:36;34.00;57.40
4435;DHT22;46552;52.150;8.428;2022-08-03T15:59:03;34.00;58.30
4435;DHT22;46552;52.150;8.428;2022-08-03T16:01:32;33.90;57.50
4435;DHT22;46552;52.150;8.428;2022-08-03T16:03:59;33.90;57.10